createdAt,value
2022-08-28T00:00:43.146Z,15.10
2022-08-28T00:03:12.230Z,15.10
2022-08-28T00:05:40.376Z,15.10
2022-08-28T00:08:09.031Z,15.10
2022-08-28T00:10:40.019Z,15.10
2022-08-28T00:13:08.949Z,15.10
2022-08-28T00:15:38.945Z,15.10
2022-08-28T00:18:07.578Z,15.10
2022-08-28T00:20:35.060Z,15.10
2022-08-28T00:23:02.682Z,15.10
2022-08-28T00:25:30.731Z,15.00
2022-08-28T00:28:08.581Z,15.00
2022-08-28T00:30:38.403Z,15.00
2022-08-28T00:33:15.481Z,15.00
2022-08-28T00:35:44.141Z,15.00
2022-08-28T00:38:12.400Z,15.00
2022-08-28T00:40:42.860Z,15.00
2022-08-28T00:43:22.135Z,15.10
2022-08-28T00:45:49.429Z,15.10
2022-08-28T00:48:16.260Z,15.10
2022-08-28T00:51:01.617Z,15.20
2022-08-28T00:53:32.662Z,15.10
2022-08-28T00:56:04.195Z,15.20
2022-08-28T00:58:35.726Z,15.20
2022-08-28T01:01:02.891Z,15.20
2022-08-28T01:03:29.826Z,15.20
2022-08-28T01:05:57.380Z,15.20
2022-08-28T01:08:24.358Z,15.20
2022-08-28T01:10:55.285Z,15.10
2022-08-28T01:13:25.383Z,15.00
2022-08-28T01:15:53.204Z,15.10
2022-08-28T01:18:22.296Z,15.00
2022-08-28T01:21:01.907Z,15.00
2022-08-28T01:23:54.128Z,15.00
2022-08-28T01:26:22.050Z,14.90
2022-08-28T01:28:49.172Z,14.90
2022-08-28T01:31:17.235Z,14.90
2022-08-28T01:33:46.316Z,14.80
2022-08-28T01:36:15.792Z,14.80
2022-08-28T01:38:45.215Z,14.70
2022-08-28T01:41:14.032Z,14.80
2022-08-28T01:43:42.954Z,14.80
2022-08-28T01:46:12.268Z,14.80
2022-08-28T01:48:43.299Z,14.80
2022-08-28T01:51:11.436Z,14.80
2022-08-28T01:53:39.560Z,14.80
2022-08-28T01:56:11.872Z,14.80
2022-08-28T01:58:39.635Z,14.80
2022-08-28T02:01:12.166Z,14.80
2022-08-28T02:03:40.120Z,14.80
2022-08-28T02:06:07.107Z,14.80
2022-08-28T02:08:34.032Z,14.90
2022-08-28T02:11:01.419Z,14.90
2022-08-28T02:13:28.437Z,14.90
2022-08-28T02:15:55.333Z,14.80
2022-08-28T02:18:22.405Z,14.90
2022-08-28T02:20:50.043Z,14.80
2022-08-28T02:23:17.205Z,14.80
2022-08-28T02:25:44.091Z,14.80
2022-08-28T02:28:11.198Z,14.80
2022-08-28T02:30:38.516Z,14.70
2022-08-28T02:33:05.939Z,14.70
2022-08-28T02:35:33.296Z,14.70
2022-08-28T02:38:01.139Z,14.70
2022-08-28T02:40:28.368Z,14.80
2022-08-28T02:42:55.421Z,14.70
2022-08-28T02:45:22.375Z,14.80
2022-08-28T02:47:53.317Z,14.80
2022-08-28T02:50:20.386Z,14.70
2022-08-28T02:52:47.603Z,14.80
2022-08-28T02:55:17.611Z,14.80
2022-08-28T02:57:45.735Z,14.70
2022-08-28T03:00:16.209Z,14.80
2022-08-28T03:02:45.608Z,14.80
2022-08-28T03:05:13.654Z,14.70
2022-08-28T03:07:40.654Z,14.70
2022-08-28T03:10:09.339Z,14.60
2022-08-28T03:12:37.045Z,14.60
2022-08-28T03:15:06.091Z,14.60
2022-08-28T03:17:33.151Z,14.50
2022-08-28T03:20:00.472Z,14.40
2022-08-28T03:22:46.627Z,14.40
2022-08-28T03:25:13.667Z,14.40
2022-08-28T03:27:40.595Z,14.30
2022-08-28T03:30:08.287Z,14.20
2022-08-28T03:32:35.951Z,14.10
2022-08-28T03:35:03.508Z,14.00
2022-08-28T03:37:31.366Z,13.90
2022-08-28T03:39:58.259Z,13.80
2022-08-28T03:42:25.411Z,13.80
2022-08-28T03:44:52.233Z,13.70
2022-08-28T03:47:19.132Z,13.70
2022-08-28T03:49:53.993Z,13.70
2022-08-28T03:52:20.880Z,13.60
2022-08-28T03:54:48.083Z,13.60
2022-08-28T03:57:22.686Z,13.60
2022-08-28T03:59:51.868Z,13.60
2022-08-28T04:02:20.529Z,13.50
2022-08-28T04:04:48.983Z,13.50
2022-08-28T04:07:17.147Z,13.50
2022-08-28T04:09:43.964Z,13.40
2022-08-28T04:12:10.960Z,13.40
2022-08-28T04:14:38.222Z,13.30
2022-08-28T04:17:06.455Z,13.30
2022-08-28T04:19:34.185Z,13.30
2022-08-28T04:22:01.390Z,13.20
2022-08-28T04:24:28.272Z,13.30
2022-08-28T04:26:55.162Z,13.30
2022-08-28T04:29:23.215Z,13.40
2022-08-28T04:31:50.583Z,13.40
2022-08-28T04:34:18.056Z,13.40
2022-08-28T04:36:46.118Z,13.40
2022-08-28T04:39:13.375Z,13.40
2022-08-28T04:41:40.497Z,13.40
2022-08-28T04:44:08.114Z,13.40
2022-08-28T04:46:35.589Z,13.40
2022-08-28T04:49:04.267Z,13.40
2022-08-28T04:51:31.615Z,13.50
2022-08-28T04:53:59.037Z,13.60
2022-08-28T04:56:26.658Z,13.70
2022-08-28T04:58:53.426Z,13.70
2022-08-28T05:01:24.340Z,13.80
2022-08-28T05:03:59.074Z,13.90
2022-08-28T05:06:28.556Z,14.00
2022-08-28T05:08:57.844Z,14.10
2022-08-28T05:11:33.360Z,14.30
2022-08-28T05:14:00.820Z,14.50
2022-08-28T05:16:27.661Z,14.70
2022-08-28T05:18:54.534Z,15.00
2022-08-28T05:21:23.064Z,15.30
2022-08-28T05:23:53.358Z,15.60
2022-08-28T05:26:20.598Z,15.90
2022-08-28T05:28:48.398Z,16.20
2022-08-28T05:31:20.984Z,16.50
2022-08-28T05:33:49.409Z,16.80
2022-08-28T05:36:17.609Z,17.00
2022-08-28T05:38:44.463Z,17.30
2022-08-28T05:41:11.945Z,17.50
2022-08-28T05:43:39.630Z,17.80
2022-08-28T05:46:10.507Z,18.10
2022-08-28T05:48:39.562Z,18.30
2022-08-28T05:51:07.295Z,18.60
2022-08-28T05:53:39.917Z,18.80
2022-08-28T05:56:14.848Z,19.00
2022-08-28T05:58:42.519Z,19.30
2022-08-28T06:01:13.853Z,19.60
2022-08-28T06:03:42.908Z,19.80
2022-08-28T06:06:11.666Z,20.00
2022-08-28T06:08:58.768Z,20.30
2022-08-28T06:11:27.469Z,20.50
2022-08-28T06:13:59.839Z,20.70
2022-08-28T06:16:29.399Z,20.90
2022-08-28T06:18:57.773Z,21.20
2022-08-28T06:21:24.778Z,21.30
2022-08-28T06:23:51.948Z,21.20
2022-08-28T06:26:18.916Z,21.40
2022-08-28T06:28:45.746Z,21.60
2022-08-28T06:31:24.619Z,21.80
2022-08-28T06:33:55.195Z,22.10
2022-08-28T06:36:22.855Z,22.20
2022-08-28T06:38:49.769Z,22.30
2022-08-28T06:41:16.723Z,22.20
2022-08-28T06:43:43.478Z,22.50
2022-08-28T06:46:10.666Z,22.50
2022-08-28T06:48:37.853Z,22.50
2022-08-28T06:51:10.014Z,22.50
2022-08-28T06:53:40.009Z,22.40
2022-08-28T15:31:00.521Z,29.80
2022-08-28T15:33:27.471Z,29.90
2022-08-28T15:35:57.911Z,30.10
2022-08-28T15:38:25.004Z,30.30
2022-08-28T15:41:10.334Z,30.50
2022-08-28T15:43:43.077Z,30.80
2022-08-28T15:46:14.772Z,31.10
2022-08-28T15:48:41.582Z,30.80
2022-08-28T15:51:08.467Z,30.30
2022-08-28T15:53:35.597Z,30.20
2022-08-28T15:56:03.217Z,30.20
2022-08-28T15:58:31.547Z,30.00
2022-08-28T16:00:58.897Z,29.90
2022-08-28T16:03:26.527Z,29.70
2022-08-28T16:05:53.578Z,29.80
2022-08-28T16:08:20.619Z,29.70
2022-08-28T16:10:49.480Z,29.10
2022-08-28T16:13:17.792Z,29.20
2022-08-28T16:15:46.784Z,29.00
2022-08-28T16:18:14.264Z,29.10
2022-08-28T16:20:42.991Z,28.60
2022-08-28T16:23:11.899Z,28.20
2022-08-28T16:25:39.191Z,27.90
2022-08-28T16:28:07.237Z,27.70
2022-08-28T16:30:43.716Z,27.60
2022-08-28T16:33:11.520Z,27.80
2022-08-28T16:35:47.929Z,28.00
2022-08-28T16:38:18.052Z,28.20
2022-08-28T16:40:46.334Z,28.10
2022-08-28T16:43:14.154Z,27.90
2022-08-28T16:45:45.556Z,28.00
2022-08-28T16:48:15.106Z,27.70
2022-08-28T16:50:43.305Z,27.40
2022-08-28T16:53:10.357Z,26.90
2022-08-28T16:55:38.494Z,26.80
2022-08-28T16:58:07.170Z,26.60
2022-08-28T17:00:34.403Z,26.50
2022-08-28T17:03:11.350Z,26.40
2022-08-28T17:05:39.807Z,26.20
2022-08-28T17:08:08.902Z,26.20
2022-08-28T17:10:39.061Z,26.20
2022-08-28T17:13:06.445Z,26.20
2022-08-28T17:15:33.326Z,26.10
2022-08-28T17:18:00.234Z,26.10
2022-08-28T17:20:45.776Z,25.60
2022-08-28T17:23:12.739Z,25.20
2022-08-28T17:25:39.634Z,24.90
2022-08-28T17:28:06.686Z,24.70
2022-08-28T17:30:33.708Z,24.50
2022-08-28T17:33:03.087Z,24.30
2022-08-28T17:35:29.954Z,24.00
2022-08-28T17:37:57.181Z,23.90
2022-08-28T17:40:24.992Z,23.60
2022-08-28T17:42:53.750Z,23.50
2022-08-28T17:45:21.309Z,23.40
2022-08-28T17:47:48.719Z,23.30
2022-08-28T17:50:16.378Z,23.30
2022-08-28T17:52:43.451Z,23.20
2022-08-28T17:55:10.493Z,22.80
2022-08-28T17:57:37.521Z,22.50
2022-08-28T18:00:07.807Z,22.20
2022-08-28T18:02:42.085Z,21.70
2022-08-28T18:05:11.124Z,21.40
2022-08-28T18:07:38.546Z,21.20
2022-08-28T18:10:07.538Z,20.90
2022-08-28T18:12:34.999Z,20.80
2022-08-28T18:15:03.771Z,20.60
2022-08-28T18:17:30.723Z,20.50
2022-08-28T18:19:57.618Z,20.30
2022-08-28T18:22:29.502Z,20.20
2022-08-28T18:24:57.116Z,20.10
2022-08-28T18:27:26.649Z,20.00
2022-08-28T18:29:54.283Z,19.90
2022-08-28T18:32:21.781Z,19.80
2022-08-28T18:34:49.003Z,19.70
2022-08-28T18:37:16.707Z,19.60
2022-08-28T18:39:43.773Z,19.50
2022-08-28T18:42:11.369Z,19.50
2022-08-28T18:44:38.351Z,19.40
2022-08-28T18:47:05.413Z,19.30
2022-08-28T18:49:32.352Z,19.30
2022-08-28T18:51:59.288Z,19.10
2022-08-28T18:54:26.449Z,19.10
2022-08-28T18:57:01.357Z,19.10
2022-08-28T18:59:32.818Z,19.00
2022-08-28T19:02:00.658Z,19.00
2022-08-28T19:04:28.118Z,18.90
2022-08-28T19:06:55.044Z,18.80
2022-08-28T19:09:22.192Z,18.80
2022-08-28T19:11:49.123Z,18.70
2022-08-28T19:14:16.128Z,18.70
2022-08-28T19:16:43.045Z,18.70
2022-08-28T19:19:10.043Z,18.70
2022-08-28T19:21:37.273Z,18.60
2022-08-28T19:24:05.031Z,18.60
2022-08-28T19:26:31.985Z,18.60
2022-08-28T19:28:59.014Z,18.50
2022-08-28T19:31:27.213Z,18.50
2022-08-28T19:33:54.617Z,18.50
2022-08-28T19:36:21.581Z,18.40
2022-08-28T19:38:48.559Z,18.30
2022-08-28T19:41:15.634Z,18.30
2022-08-28T19:43:42.985Z,18.30
2022-08-28T19:46:19.446Z,18.20
2022-08-28T19:48:50.541Z,18.20
2022-08-28T19:51:23.458Z,18.20
2022-08-28T19:53:58.385Z,18.20
2022-08-28T19:56:32.438Z,18.10
2022-08-28T19:59:01.731Z,18.10
2022-08-28T20:01:33.047Z,18.10
2022-08-28T20:04:00.750Z,18.00
2022-08-28T20:06:31.022Z,18.00
2022-08-28T20:08:58.475Z,17.90
2022-08-28T20:11:30.310Z,17.90
2022-08-28T20:14:04.433Z,17.80
2022-08-28T20:16:35.872Z,17.80
2022-08-28T20:19:05.044Z,17.80
2022-08-28T20:21:37.904Z,17.80
2022-08-28T20:24:07.923Z,17.80
2022-08-28T20:26:35.780Z,17.70
2022-08-28T20:29:03.261Z,17.70
2022-08-28T20:31:31.681Z,17.70
2022-08-28T20:33:58.684Z,17.70
2022-08-28T20:36:26.376Z,17.70
2022-08-28T20:38:53.223Z,17.60
2022-08-28T20:41:22.657Z,17.70
2022-08-28T20:43:50.185Z,17.70
2022-08-28T20:46:17.619Z,17.60
2022-08-28T20:48:45.456Z,17.70
2022-08-28T20:51:12.775Z,17.70
2022-08-28T20:53:39.891Z,17.70
2022-08-28T20:56:09.407Z,17.70
2022-08-28T20:58:37.290Z,17.70
2022-08-28T21:01:05.657Z,17.70
2022-08-28T21:03:33.087Z,17.70
2022-08-28T21:06:00.249Z,17.70
2022-08-28T21:08:27.173Z,17.70
2022-08-28T21:10:54.195Z,17.70
2022-08-28T21:13:21.796Z,17.80
2022-08-28T21:15:49.249Z,17.80
2022-08-28T21:18:16.557Z,17.80
2022-08-28T21:20:44.683Z,17.90
2022-08-28T21:23:11.932Z,17.90
2022-08-28T21:25:41.163Z,18.00
2022-08-28T21:28:08.406Z,17.90
2022-08-28T21:30:35.501Z,17.90
2022-08-28T21:33:02.610Z,17.90
2022-08-28T21:35:29.587Z,17.90
2022-08-28T21:37:56.658Z,18.00
2022-08-28T21:40:23.697Z,17.90
2022-08-28T21:42:53.609Z,17.90
2022-08-28T21:45:20.741Z,17.90
2022-08-28T21:47:47.798Z,17.90
2022-08-28T21:50:16.705Z,17.90
2022-08-28T21:52:43.590Z,17.80
2022-08-28T21:55:13.887Z,17.80
2022-08-28T21:57:42.839Z,17.70
2022-08-28T22:00:15.908Z,17.70
2022-08-28T22:02:43.195Z,17.70
2022-08-28T22:05:10.966Z,17.60
2022-08-28T22:07:37.942Z,17.50
2022-08-28T22:10:05.212Z,17.40
2022-08-28T22:12:32.933Z,17.30
2022-08-28T22:15:00.306Z,17.20
2022-08-28T22:17:27.217Z,17.10
2022-08-28T22:19:55.101Z,17.00
2022-08-28T22:22:40.336Z,17.00
2022-08-28T22:25:07.839Z,17.00
2022-08-28T22:27:35.194Z,16.90
2022-08-28T22:30:02.264Z,16.80
2022-08-28T22:32:29.352Z,16.80
2022-08-28T22:34:56.344Z,16.70
2022-08-28T22:37:23.403Z,16.60
2022-08-28T22:39:51.996Z,16.60
2022-08-28T22:42:19.710Z,16.50
2022-08-28T22:44:46.837Z,16.50
2022-08-28T22:47:14.121Z,16.40
2022-08-28T22:49:41.067Z,16.30
2022-08-28T22:52:11.187Z,16.30
2022-08-28T22:54:38.593Z,16.20
2022-08-28T22:57:06.046Z,16.20
2022-08-28T22:59:34.473Z,16.10
2022-08-28T23:02:03.271Z,16.10
2022-08-28T23:04:31.093Z,16.10
2022-08-28T23:06:58.037Z,16.00
2022-08-28T23:09:24.910Z,15.90
2022-08-28T23:11:51.986Z,15.80
2022-08-28T23:14:19.308Z,15.80
2022-08-28T23:16:46.450Z,15.70
2022-08-28T23:19:13.844Z,15.60
2022-08-28T23:21:43.719Z,15.50
2022-08-28T23:24:13.027Z,15.50
2022-08-28T23:26:40.176Z,15.40
2022-08-28T23:29:07.154Z,15.30
2022-08-28T23:31:34.076Z,15.30
2022-08-28T23:34:02.263Z,15.30
2022-08-28T23:36:29.428Z,15.20
2022-08-28T23:38:56.371Z,15.20
2022-08-28T23:41:24.629Z,15.30
2022-08-28T23:43:52.228Z,15.20
2022-08-28T23:46:20.889Z,15.10
2022-08-28T23:48:49.722Z,15.10
2022-08-28T23:51:17.277Z,15.20
2022-08-28T23:53:44.868Z,15.10
2022-08-28T23:56:12.745Z,15.10
2022-08-28T23:58:40.250Z,15.10
